City by the Sea, Texas
Current Conditions -  °F | °C
As of 4:15 PM on Wednesday 28 Jan 2015 (Local Time) from KTFP Reporting Station
Clear Clear  
Wind Chill: 70°   Ceiling: Unl
Heat Index: 70°   Visibility: 10mi
Dew Point: 61°   Wind: 14mph
Humidity: 72%   Direction: 160°SSE
Pressure: 30.12"   Gusts: 20mph
Location:  27.9399°N, 97.1805°W
Report Text: KTFP 282215Z AUTO 16012G17KT 10SM CLR 21/16 A3012 RMK AO2 T02120159
Loading
Personal Weather Stations






























Interactive Weather Map New forecast layout! Learn more

10-Day Weather Forecast

Advertisements
Track Severe Weather on mobile